Terminal Aerodrome Forecast
Issued by NWS Albuquerque, NM

Home | Current Version | Previous Version | Text Only | Print | Product List | Glossary On
Versions: 1 2 3 4 5 6 7 8 9 10 11 12 13 14 15
378
FTUS45 KABQ 232325
TAFABQ
TAF
KABQ 232325Z 2400/2424 20013G22KT P6SM FEW100
     FM240200 18012KT P6SM BKN250
     FM240700 16008KT P6SM SCT250
     FM241500 21010KT P6SM FEW200
     FM241800 25015G25KT P6SM FEW150
     FM242100 26025G37KT P6SM SCT150=

USA.gov is the U.S. government's official web portal to all federal, state and local government web resources and services.